createdAt,value
2018-09-29T00:04:10.438Z,86.40
2018-09-29T00:09:14.052Z,87.00
2018-09-29T00:14:17.693Z,87.00
2018-09-29T00:19:21.516Z,88.00
2018-09-29T00:24:25.132Z,90.00
2018-09-29T00:29:28.855Z,90.10
2018-09-29T00:34:32.446Z,90.40
2018-09-29T00:39:36.083Z,90.80
2018-09-29T00:44:39.798Z,90.40
2018-09-29T00:49:43.424Z,90.70
2018-09-29T00:54:47.011Z,90.80
2018-09-29T00:59:50.627Z,91.20
2018-09-29T01:04:54.275Z,91.30
2018-09-29T01:09:57.992Z,91.90
2018-09-29T01:15:01.702Z,91.90
2018-09-29T01:20:05.432Z,92.00
2018-09-29T01:25:09.119Z,92.20
2018-09-29T01:30:12.740Z,92.30
2018-09-29T01:35:16.376Z,92.40
2018-09-29T01:40:20.063Z,92.40
2018-09-29T01:45:23.713Z,92.80
2018-09-29T01:50:27.424Z,93.00
2018-09-29T01:55:31.061Z,93.30
2018-09-29T02:00:34.675Z,93.40
2018-09-29T02:05:38.804Z,93.20
2018-09-29T02:10:42.474Z,93.50
2018-09-29T02:15:46.115Z,93.60
2018-09-29T02:20:49.722Z,93.80
2018-09-29T02:25:53.454Z,94.20
2018-09-29T02:30:57.075Z,94.30
2018-09-29T02:36:00.811Z,94.40
2018-09-29T02:41:04.419Z,94.80
2018-09-29T02:46:08.031Z,94.80
2018-09-29T02:51:11.767Z,94.80
2018-09-29T02:56:15.483Z,95.00
2018-09-29T03:01:19.090Z,94.90
2018-09-29T03:06:22.820Z,95.00
2018-09-29T03:11:26.420Z,95.30
2018-09-29T03:16:30.025Z,95.40
2018-09-29T03:21:33.664Z,95.60
2018-09-29T03:26:37.282Z,95.70
2018-09-29T03:31:40.948Z,95.90
2018-09-29T03:36:44.625Z,95.70
2018-09-29T03:41:48.224Z,96.20
2018-09-29T03:46:51.833Z,96.30
2018-09-29T03:51:55.456Z,96.10
2018-09-29T03:56:59.186Z,96.10
2018-09-29T04:02:02.815Z,96.00
2018-09-29T04:07:06.532Z,95.80
2018-09-29T04:12:10.132Z,96.40
2018-09-29T04:17:13.723Z,96.60
2018-09-29T04:22:17.387Z,96.80
2018-09-29T04:27:21.068Z,97.00
2018-09-29T04:32:24.681Z,96.70
2018-09-29T04:37:28.300Z,96.90
2018-09-29T04:42:31.960Z,97.30
2018-09-29T04:47:35.571Z,97.40
2018-09-29T04:52:39.291Z,97.10
2018-09-29T04:57:43.692Z,97.40
2018-09-29T05:02:47.343Z,97.30
2018-09-29T05:07:51.075Z,97.60
2018-09-29T05:12:54.673Z,97.80
2018-09-29T05:17:58.490Z,97.70
2018-09-29T05:23:02.116Z,97.70
2018-09-29T05:28:05.948Z,97.60
2018-09-29T05:33:09.549Z,98.20
2018-09-29T05:38:13.200Z,98.20
2018-09-29T05:43:18.829Z,97.90
2018-09-29T05:48:25.303Z,97.70
2018-09-29T05:53:31.553Z,97.80
2018-09-29T05:58:35.361Z,97.90
2018-09-29T06:03:39.040Z,97.90
2018-09-29T06:08:43.598Z,98.20
2018-09-29T06:13:47.217Z,98.30
2018-09-29T06:18:50.836Z,98.30
2018-09-29T06:23:54.528Z,98.40
2018-09-29T06:28:58.247Z,98.70
2018-09-29T06:34:01.857Z,98.20
2018-09-29T06:39:07.756Z,97.90
2018-09-29T06:44:11.356Z,98.00
2018-09-29T06:49:15.017Z,97.90
2018-09-29T06:54:18.684Z,97.70
2018-09-29T06:59:22.309Z,97.60
2018-09-29T07:04:26.030Z,97.40
2018-09-29T07:09:29.639Z,97.40
2018-09-29T07:14:33.241Z,96.90
2018-09-29T07:19:36.837Z,97.00
2018-09-29T07:24:40.475Z,96.00
2018-09-29T07:29:44.220Z,95.30
2018-09-29T07:34:47.936Z,94.90
2018-09-29T07:39:51.556Z,94.60
2018-09-29T07:44:55.272Z,94.40
2018-09-29T07:49:58.942Z,94.20
2018-09-29T07:55:02.713Z,94.50
2018-09-29T08:00:07.167Z,94.10
2018-09-29T08:05:10.825Z,93.90
2018-09-29T08:10:14.433Z,93.00
2018-09-29T08:15:18.100Z,92.50
2018-09-29T08:20:21.796Z,92.20
2018-09-29T08:25:25.480Z,90.60
2018-09-29T08:30:29.130Z,91.30
2018-09-29T08:35:32.879Z,90.60
2018-09-29T08:40:36.496Z,90.20
2018-09-29T08:45:40.573Z,88.50
2018-09-29T08:50:44.353Z,86.70
2018-09-29T08:55:48.067Z,88.60
2018-09-29T09:00:51.680Z,83.20
2018-09-29T09:05:55.391Z,83.30
2018-09-29T09:10:59.116Z,77.30
2018-09-29T09:16:03.215Z,79.90
2018-09-29T09:21:06.963Z,78.20
2018-09-29T09:26:10.679Z,80.80
2018-09-29T09:31:14.304Z,78.50
2018-09-29T09:36:18.128Z,78.20
2018-09-29T09:41:21.777Z,75.80
2018-09-29T09:46:25.364Z,74.50
2018-09-29T09:51:28.986Z,72.30
2018-09-29T09:56:32.691Z,73.90
2018-09-29T10:01:41.800Z,71.50
2018-09-29T10:06:45.457Z,70.80
2018-09-29T10:11:49.176Z,71.30
2018-09-29T10:16:52.881Z,66.10
2018-09-29T10:21:56.505Z,65.50
2018-09-29T10:27:00.128Z,66.20
2018-09-29T10:32:03.784Z,67.60
2018-09-29T10:37:07.458Z,66.10
2018-09-29T10:42:11.084Z,64.20
2018-09-29T10:47:14.931Z,64.00
2018-09-29T10:52:18.552Z,64.40
2018-09-29T10:57:22.397Z,62.60
2018-09-29T11:02:26.073Z,63.90
2018-09-29T11:07:29.784Z,65.10
2018-09-29T11:12:33.420Z,58.00
2018-09-29T11:17:37.028Z,58.30
2018-09-29T11:22:40.737Z,57.00
2018-09-29T11:27:44.580Z,58.10
2018-09-29T11:32:48.624Z,54.70
2018-09-29T11:37:52.367Z,54.90
2018-09-29T11:42:56.647Z,57.40
2018-09-29T11:48:00.264Z,54.60
2018-09-29T11:53:03.880Z,51.20
2018-09-29T11:58:07.496Z,49.60
2018-09-29T12:03:11.118Z,52.00
2018-09-29T12:08:14.728Z,52.30
2018-09-29T12:13:18.430Z,52.10
2018-09-29T12:18:22.056Z,53.60
2018-09-29T12:23:25.693Z,55.00
2018-09-29T12:28:29.315Z,54.90
2018-09-29T12:33:33.016Z,55.10
2018-09-29T12:38:36.614Z,53.70
2018-09-29T12:43:40.249Z,55.70
2018-09-29T12:48:43.835Z,55.20
2018-09-29T12:53:47.453Z,55.50
2018-09-29T12:58:51.148Z,56.00
2018-09-29T13:03:54.724Z,56.50
2018-09-29T13:08:58.352Z,55.00
2018-09-29T13:14:02.291Z,56.40
2018-09-29T13:19:06.381Z,56.50
2018-09-29T13:24:10.094Z,55.60
2018-09-29T13:29:13.854Z,56.40
2018-09-29T13:34:17.515Z,54.80
2018-09-29T13:39:21.147Z,55.60
2018-09-29T13:44:24.883Z,56.10
2018-09-29T13:49:28.616Z,56.30
2018-09-29T13:54:32.217Z,56.80
2018-09-29T13:59:36.059Z,56.60
2018-09-29T14:04:39.671Z,56.70
2018-09-29T14:09:43.288Z,56.20
2018-09-29T14:14:47.028Z,55.80
2018-09-29T14:19:50.631Z,55.90
2018-09-29T14:24:54.339Z,54.50
2018-09-29T14:29:58.075Z,52.90
2018-09-29T14:35:01.661Z,49.80
2018-09-29T14:40:05.716Z,47.40
2018-09-29T14:45:09.415Z,46.10
2018-09-29T14:50:13.004Z,45.90
2018-09-29T14:55:16.743Z,44.60
2018-09-29T15:00:20.387Z,44.80
2018-09-29T15:05:24.085Z,42.30
2018-09-29T15:10:27.707Z,39.70
2018-09-29T15:15:31.346Z,41.50
2018-09-29T15:20:34.984Z,39.70
2018-09-29T15:25:38.727Z,37.70
2018-09-29T15:30:42.424Z,37.50
2018-09-29T15:35:46.135Z,40.10
2018-09-29T15:40:49.780Z,35.70
2018-09-29T15:45:53.536Z,38.60
2018-09-29T15:50:57.171Z,38.30
2018-09-29T15:56:00.985Z,39.20
2018-09-29T16:01:04.655Z,38.20
2018-09-29T16:06:08.309Z,39.10
2018-09-29T16:11:11.950Z,40.00
2018-09-29T16:16:15.656Z,40.40
2018-09-29T16:21:19.309Z,41.00
2018-09-29T16:26:22.975Z,43.40
2018-09-29T16:31:26.590Z,45.60
2018-09-29T16:36:30.229Z,46.70
2018-09-29T16:41:33.907Z,48.50
2018-09-29T16:46:37.995Z,50.20
2018-09-29T16:51:41.613Z,50.40
2018-09-29T16:56:45.257Z,51.60
2018-09-29T17:01:48.885Z,52.00
2018-09-29T17:06:52.568Z,53.40
2018-09-29T17:11:56.208Z,53.70
2018-09-29T17:16:59.890Z,54.30
2018-09-29T17:22:03.574Z,55.20
2018-09-29T17:27:07.405Z,55.90
2018-09-29T17:32:11.044Z,56.80
2018-09-29T17:37:14.761Z,57.40
2018-09-29T17:42:18.404Z,58.50
2018-09-29T17:47:22.018Z,59.60
2018-09-29T17:52:25.644Z,61.80
2018-09-29T17:57:29.280Z,61.60
2018-09-29T18:02:32.915Z,63.10
2018-09-29T18:07:36.610Z,64.10
2018-09-29T18:12:40.293Z,64.80
2018-09-29T18:17:43.944Z,66.50
2018-09-29T18:22:47.976Z,67.60
2018-09-29T18:27:51.633Z,68.60
2018-09-29T18:32:56.225Z,69.80
2018-09-29T18:37:59.927Z,71.00
2018-09-29T18:43:03.690Z,71.70
2018-09-29T18:48:07.362Z,73.10
2018-09-29T18:53:11.100Z,74.80
2018-09-29T18:58:14.766Z,75.40
2018-09-29T19:03:18.606Z,76.50
2018-09-29T19:08:22.214Z,77.10
2018-09-29T19:13:26.740Z,78.80
2018-09-29T19:18:30.706Z,79.10
2018-09-29T19:23:34.396Z,81.10
2018-09-29T19:28:38.342Z,82.00
2018-09-29T19:33:41.983Z,83.30
2018-09-29T19:38:45.595Z,84.20
2018-09-29T19:43:49.304Z,85.50
2018-09-29T19:48:52.983Z,85.20
2018-09-29T19:53:56.524Z,86.50
2018-09-29T19:59:00.159Z,87.50
2018-09-29T20:04:04.152Z,88.00
2018-09-29T20:09:08.496Z,88.40
2018-09-29T20:14:12.182Z,89.70
2018-09-29T20:19:15.807Z,90.00
2018-09-29T20:24:19.645Z,90.40
2018-09-29T20:29:23.203Z,90.60
2018-09-29T20:34:26.842Z,90.80
2018-09-29T20:39:30.552Z,90.70
2018-09-29T20:44:34.286Z,91.20
2018-09-29T20:49:37.976Z,90.90
2018-09-29T20:54:41.641Z,91.00
2018-09-29T20:59:45.281Z,91.40
2018-09-29T21:04:49.150Z,91.30
2018-09-29T21:09:53.366Z,91.30
2018-09-29T21:14:57.134Z,91.30
2018-09-29T21:20:00.872Z,91.40
2018-09-29T21:25:04.641Z,91.40
2018-09-29T21:30:08.420Z,91.50
2018-09-29T21:35:12.156Z,91.40
2018-09-29T21:40:15.808Z,91.70
2018-09-29T21:45:19.430Z,91.90
2018-09-29T21:50:23.169Z,91.80
2018-09-29T21:55:26.840Z,91.60
2018-09-29T22:00:36.143Z,91.50
2018-09-29T22:05:40.041Z,92.00
2018-09-29T22:10:44.264Z,91.90
2018-09-29T22:15:50.155Z,92.40
2018-09-29T22:20:53.924Z,92.20
2018-09-29T22:25:57.583Z,92.30
2018-09-29T22:31:01.377Z,92.20
2018-09-29T22:36:05.544Z,92.50
2018-09-29T22:41:09.539Z,92.50
2018-09-29T22:46:13.310Z,92.50
2018-09-29T22:51:16.925Z,92.10
2018-09-29T22:56:20.635Z,91.10
2018-09-29T23:01:24.683Z,91.10
2018-09-29T23:06:28.324Z,91.70
2018-09-29T23:11:31.983Z,91.40
2018-09-29T23:16:35.716Z,91.80
2018-09-29T23:21:39.659Z,91.30
2018-09-29T23:26:43.285Z,91.50
2018-09-29T23:31:47.211Z,91.20
2018-09-29T23:36:50.900Z,91.00
2018-09-29T23:41:54.528Z,90.90
2018-09-29T23:46:58.222Z,91.10
2018-09-29T23:52:01.872Z,91.20
2018-09-29T23:57:05.487Z,91.30
